LiveATC.Net - Listen to live air traffic control over the Internet! Contact LiveATC.net for advertising information

Find LiveATC Audio Streams


Airport/ARTCC Code

Frequency
(e.g., 124.400, 128.75)
Site-wide search

Browse LiveATC Feeds
LiveATC Coverage Map
Top 50 LiveATC Feeds
Bad Weather Areas

LiveATC FAQ
Offer a LiveATC Feed
Contact LiveATC.net
Press Inquiries

LiveATC on iPhone
LiveATC on Android

LiveATC Mobile
(Mobile browser)

ATC Audio Archives
Interesting Recordings

LiveATC Forums

Home Page
About LiveATC.net
Make a Donation
LiveATC Bookstore

Terms of Use
Privacy Policy

ATC/Radar Sites
U.S. ARTCC Freqs
Canadian Air Freqs

AIRMETs/SIGMETs

FAA Airport Status
Nat'l Airspace Status
Arrival Demand Charts


Server Software By:
Icecast.org
Liquidsoap


Current Potentially Bad Weather Airports
(updated every 30 minutes - sorted alphabetically by ICAO code)



This page lists LiveATC.net airport areas that may be interesting to listen to because of challenging flying (weather) conditions. Challenging weather conditions include low ceilings, limited visibility, high or gusty winds, or thunderstorms. This is an evolving new feature and comments are welcome.

Updated: Mon Aug 31 08:40:01 UTC 2015
Click on airport name to go to that airport area's feeds.

1C5/LL10/KLOT CTAF
klotKLOT 310815Z AUTO 00000KT 1/4SM FG OVC002 16/16 A3004 RMK AO2 T01610161
CYTZ Tower
cytzCYTZ 310817Z AUTO 25002KT 2 1/2SM BR CLR 19/18 A2999 RMK SLP155 DENSITY ALT 700FT
ESOE Twr/App
WX MAP UNAVAILABLEESOE 310820Z 22004KT 200V260 9999 OVC003 14/14 Q1018
KAAO CTAF
kaaoKAAO 310805Z AUTO 13003KT 3/4SM BR VV015 19/18 A2995 RMK AO2 T01890183
KAHN Tower
kahnKAHN 310814Z AUTO 08004KT 7SM OVC004 19/18 A3010 RMK AO2 T01890183
KARB Gnd/Twr
karbKARB 310753Z AUTO 00000KT M1/4SM FG VV002 15/15 A3004 RMK AO2 SLP166 T01500150
KARR Tower
karrKARR 310818Z AUTO 00000KT 1/4SM FG VV002 15/14 A3004 RMK AO2 T01500144
KATL Approach (Final)
katlKATL 310814Z 07006KT 2 1/2SM -DZ BR OVC004 20/18 A3008 RMK AO2 P0000
KBMI Gnd/Twr/App/Ops
kbmiKBMI 310815Z AUTO 18004KT 2 1/2SM BR CLR 19/19 A3005 RMK AO2
KBNW CTAF
kbnwKBNW 310815Z AUTO 13003KT 1/4SM FG OVC002 17/17 A2998 RMK AO2 VIS M1/4V5
MA/NH/RI/CT Area CTAF
keenKEEN 310815Z AUTO 00000KT 1/4SM OVC002 16/14 A3001 RMK AO1
MA/NH/RI/CT Area CTAF
koreKORE 310752Z AUTO 00000KT 1/4SM FG VV002 17/17 A3000 RMK AO2 SLP158 T01720172
KBTL/KAZO Gnd/Twr/App
kazoKAZO 310816Z AUTO 00000KT 1/4SM R35/2200V3500FT FG VV009 15/14 A3005 RMK AO2 T01500139
KCHD Tower
kchdKCHD 310347Z 040101KT 10SM -RA BKN080 31/16 A2979 RMK LTG DSNT ALQDS LAST
KCRQ Tower #2
kcrqKCRQ 310753Z AUTO 13005KT 9SM OVC009 21/18 A2986 RMK AO2 SLP108 T02060178 402670206
KDBQ Gnd/Twr/ZAU
kdbqKDBQ 310810Z AUTO 00000KT 1/2SM R36/1800V5000FT FG VV002 15/15 A3003 RMK AO2 T01500150 $
KDPA Del/Gnd/Twr/Misc
kdpaKDPA 310802Z 00000KT 1/4SM FG VV002 15/14 A3003 RMK AO2 T01500139 RVRNO
KEMT Gnd/Twr
kemtKEMT 310246Z 210047KT 10SM CLR 26/17 A2983
KFDK Del/Gnd/Twr/CTAF
kfdkKFDK 310810Z AUTO 00000KT 10SM SCT120 22/21 A3009 RMK AO2 LTG DSNT E
KFNT Del/Gnd/Twr/App
kfntKFNT 310815Z AUTO 24003KT 1/2SM R09/1200V2600FT FG VV005 16/14 A3004 RMK AO2 T01610144 $
KFTY Ground/Tower
kftyKFTY 310753Z 06005KT 10SM OVC008 20/18 A3008 RMK AO2 SLP180 T02000183 $
KGFL CTAF/App
kgflKGFL 310822Z AUTO 00000KT 2 1/2SM BR CLR 16/14 A2999 RMK AO2 T01560144
KGNV Ground/Tower
kgnvKGNV 310801Z AUTO 00000KT 10SM OVC004 23/23 A2999 RMK AO2 T02330233
KGRR Gnd/Twr/App
kgrrKGRR 310804Z AUTO 27005KT 3SM BR OVC003 18/18 A3005 RMK AO2 T01830178
KHXD Ground/Tower
khxdKHXD 310815Z AUTO 13004KT 10SM SCT015 26/25 A3001 RMK AO2 LTG DSNT SE P0000
KIPT Gnd/Twr/ZNY
kiptKIPT 310828Z AUTO 36003KT 1 1/4SM BR OVC003 21/19 A3005 RMK AO2 T02060
KJXN Del/Gnd/Twr/App
kjxnKJXN 310814Z 00000KT 1/4SM FG VV001 16/15 A3005 RMK AO2 T01560150
KLAN Del/Gnd/Twr/App
klanKLAN 310813Z 28004KT 1/8SM R28L/1400V2600FT FG VV002 17/16 A3005 RMK AO2 T01720161
KMSN Twr/App
kmsnKMSN 310813Z AUTO 00000KT 1/4SM R36/P6000FT FG VV005 16/15 A3003 RMK AO2 T01560150
KOTM Del/Twr/App/Center
kotmKOTM 310817Z AUTO 12004KT 1/2SM FG VV005 17/17 A2998 RMK AO2 T01720172 TSNO
KPRC Practice Area
kprcKPRC 310753Z AUTO 15004KT 10SM CLR 21/13 A3011 RMK AO2 LTG DSNT E SLP109 T02110128 $
KPVU Tower
kpvuKPVU 310815Z AUTO 00000KT 10SM CLR 17/09 A3004 RMK AO1 LTG DSNT N
KSGJ Ground/Tower
ksgjKSGJ 310825Z AUTO 19004KT 10SM OVC008 25/24 A3000 RMK AO2 CIG 006V010
KUGN Tower
kugnKUGN 310824Z AUTO 21003KT 1/2SM FG VV001 17/17 A3003 RMK AO2 T01670167
KVPZ CTAF/Clearance/App
kvpzKVPZ 310756Z AUTO 06003KT 1/4SM FG VV008 17/16 A3005 RMK AO2 SLP170 T01670161 TSNO
KYIP Gnd/Twr/App
kyipKYIP 310753Z 00000KT 2 1/2SM BR FEW003 19/17 A3004 RMK AO2 SLP164 T01890167
PASC CTAF/Unicom/AFIS/App
WX MAP UNAVAILABLEPASC 310753Z 30013KT 4SM -SN BR OVC007 01/M01 A2966 RMK AO2 SLP045 P0000 T00111006
USTR Gnd/Twr/App
WX MAP UNAVAILABLEUSTR 310800Z 20006MPS 6000 -SHRA OVC020CB 09/07 Q0996 R21/290060 TEMPO 2000 SHRA BKN005 RMK QFE738/0984
VGHS Tower
WX MAP UNAVAILABLEVGHS 310750Z 00000KT 3200 TSRA BKN010 FEW025CB OVC080 27/26 Q1003 TEMPO S/VIS 2000M